Time;durP1;ratioP1;P1;durP2;ratioP2;P2;SDS_P1;SDS_P2;PMS_P1;PMS_P2;Temp;Humidity;BMP_temperature;BMP_pressure;BME280_temperature;BME280_humidity;BME280_pressure;Samples;Min_cycle;Max_cycle;Signal;HPM_P1;HPM_P2
2022/03/14 00:00:12;;;;;;;;;11.00;5.33;;;;;8.54;75.83;101626.06;5032821;28;45386;-68
2022/03/14 00:02:38;;;;;;;;;4.67;4.00;;;;;8.59;76.39;101624.75;5022332;28;45276;-70
2022/03/14 00:05:05;;;;;;;;;6.67;4.00;;;;;8.61;76.26;101615.63;5017686;28;45398;-69
2022/03/14 00:07:31;;;;;;;;;5.67;3.00;;;;;8.58;75.23;101625.72;5018511;28;46189;-72
2022/03/14 00:09:57;;;;;;;;;5.00;3.00;;;;;8.65;75.27;101625.25;5024570;28;45555;-68
2022/03/14 00:12:25;;;;;;;;;6.67;3.00;;;;;8.76;75.72;101625.31;5024112;28;45283;-68
2022/03/14 00:14:53;;;;;;;;;4.00;3.00;;;;;8.72;74.97;101626.50;5020303;28;45548;-68
2022/03/14 00:17:19;;;;;;;;;2.00;2.00;;;;;8.69;74.67;101632.19;5024470;28;45572;-68
2022/03/14 00:19:47;;;;;;;;;3.00;1.67;;;;;8.76;74.83;101638.88;5019730;28;45530;-68
2022/03/14 00:22:15;;;;;;;;;3.00;3.00;;;;;8.63;75.26;101633.47;5017547;28;45276;-68
2022/03/14 00:24:41;;;;;;;;;3.00;3.00;;;;;8.75;74.95;101661.53;5023325;28;45422;-68
2022/03/14 00:27:07;;;;;;;;;4.67;3.67;;;;;8.71;74.60;101663.56;5023622;28;48389;-68
2022/03/14 00:29:32;;;;;;;;;7.00;3.33;;;;;8.75;74.69;101673.22;5023574;28;45989;-68
2022/03/14 00:32:00;;;;;;;;;2.67;1.67;;;;;8.80;74.35;101678.28;5025327;28;45335;-70
2022/03/14 00:34:25;;;;;;;;;5.67;3.00;;;;;8.82;74.03;101689.88;5040055;28;45428;-69
2022/03/14 00:36:50;;;;;;;;;5.33;2.00;;;;;8.82;74.41;101695.31;5024901;28;45386;-68
2022/03/14 00:39:16;;;;;;;;;4.00;3.33;;;;;8.85;74.28;101701.34;5024281;28;45516;-68
2022/03/14 00:41:41;;;;;;;;;2.00;2.00;;;;;8.79;74.32;101714.50;5020496;28;45453;-68
2022/03/14 00:44:07;;;;;;;;;4.67;2.67;;;;;8.80;74.12;101708.09;5021920;28;45526;-68
2022/03/14 00:46:32;;;;;;;;;3.00;3.00;;;;;8.87;74.12;101714.78;5023421;28;46817;-68
2022/03/14 00:48:57;;;;;;;;;3.33;3.33;;;;;8.83;74.03;101722.31;5021682;28;45314;-68
2022/03/14 00:51:23;;;;;;;;;3.00;3.00;;;;;8.86;73.96;101727.47;5024784;28;45378;-68
2022/03/14 00:53:48;;;;;;;;;4.00;4.00;;;;;8.80;73.48;101737.91;5024186;28;45373;-68
2022/03/14 00:56:13;;;;;;;;;4.33;2.33;;;;;8.62;73.77;101741.97;5024271;28;46140;-68
2022/03/14 00:58:39;;;;;;;;;3.67;2.33;;;;;8.65;74.04;101739.91;5020109;28;45687;-68
2022/03/14 01:01:05;;;;;;;;;5.00;2.67;;;;;8.81;74.13;101743.22;5023313;28;45330;-68
2022/03/14 01:03:30;;;;;;;;;2.00;1.67;;;;;8.90;73.71;101755.22;5037060;28;45347;-68
2022/03/14 01:05:56;;;;;;;;;4.00;3.00;;;;;8.89;73.74;101756.19;5021818;28;45509;-68
2022/03/14 01:08:22;;;;;;;;;4.00;3.00;;;;;8.91;73.29;101749.66;5024583;28;45205;-68
2022/03/14 01:10:48;;;;;;;;;2.67;2.67;;;;;8.86;72.98;101764.53;5022405;28;45360;-68
2022/03/14 01:13:13;;;;;;;;;3.33;3.33;;;;;8.85;73.33;101763.69;5024879;28;45553;-69
2022/03/14 01:15:38;;;;;;;;;3.00;3.00;;;;;8.90;73.78;101769.66;5026198;28;47106;-69
2022/03/14 01:18:05;;;;;;;;;4.00;2.00;;;;;8.87;73.89;101774.41;5022955;28;45368;-68
2022/03/14 01:20:31;;;;;;;;;2.67;2.67;;;;;8.90;73.50;101779.63;5023851;28;45472;-68
2022/03/14 01:22:56;;;;;;;;;4.00;2.67;;;;;8.96;73.48;101785.44;5023258;28;45422;-68
2022/03/14 01:25:26;;;;;;;;;3.67;1.67;;;;;8.95;73.26;101782.84;5023239;28;45346;-68
2022/03/14 01:27:53;;;;;;;;;5.33;2.00;;;;;8.97;73.59;101791.75;5022512;28;45369;-68
2022/03/14 01:30:19;;;;;;;;;1.67;1.33;;;;;9.01;73.62;101787.81;5018810;28;45359;-68
2022/03/14 01:32:45;;;;;;;;;2.67;2.67;;;;;9.08;73.02;101799.94;5021787;28;45467;-68
2022/03/14 01:35:11;;;;;;;;;2.00;2.00;;;;;9.08;73.42;101801.78;5023348;28;46325;-69
2022/03/14 01:37:36;;;;;;;;;3.33;2.00;;;;;9.04;72.65;101793.03;5024029;28;45550;-68
2022/03/14 01:40:02;;;;;;;;;2.33;2.33;;;;;8.93;72.72;101793.78;5023518;28;45307;-68
2022/03/14 01:42:28;;;;;;;;;1.67;1.00;;;;;8.98;72.72;101807.88;5024398;28;45418;-68
2022/03/14 01:44:54;;;;;;;;;0.67;0.67;;;;;8.98;73.49;101810.56;5022716;28;45490;-68
2022/03/14 01:47:19;;;;;;;;;3.67;2.00;;;;;9.05;73.17;101816.44;5022612;28;45304;-68
2022/03/14 01:49:46;;;;;;;;;4.33;2.00;;;;;9.03;72.78;101812.97;5023539;28;45291;-68
2022/03/14 01:52:13;;;;;;;;;2.00;1.67;;;;;9.07;73.05;101813.59;5024218;28;45652;-68
2022/03/14 01:54:40;;;;;;;;;4.67;3.67;;;;;9.07;72.94;101814.47;5023246;28;45347;-68
2022/03/14 01:57:06;;;;;;;;;3.67;1.00;;;;;9.08;72.93;101813.50;5035580;28;45509;-68
2022/03/14 01:59:32;;;;;;;;;8.00;2.00;;;;;9.06;72.54;101818.16;5015170;28;45335;-68
2022/03/14 02:01:59;;;;;;;;;2.33;1.00;;;;;9.06;72.22;101823.56;5023719;28;45399;-68
2022/03/14 02:04:24;;;;;;;;;3.00;2.00;;;;;9.02;73.09;101819.38;5022710;28;46206;-68
2022/03/14 02:06:52;;;;;;;;;2.00;2.00;;;;;9.02;72.71;101824.78;5018747;28;45271;-68
2022/03/14 02:09:18;;;;;;;;;1.00;1.00;;;;;8.98;72.77;101826.00;5021835;28;45312;-68
2022/03/14 02:12:13;;;;;;;;;1.00;1.00;;;;;8.88;72.78;101819.50;5023049;28;45288;-68
2022/03/14 02:14:41;;;;;;;;;3.00;1.00;;;;;8.85;73.25;101822.44;5019681;28;48101;-68
2022/03/14 02:17:10;;;;;;;;;2.00;2.00;;;;;8.83;73.04;101829.81;5022474;28;45476;-68
2022/03/14 02:19:36;;;;;;;;;3.00;2.33;;;;;8.78;73.20;101831.97;5021886;28;45351;-68
2022/03/14 02:22:07;;;;;;;;;1.00;1.00;;;;;8.69;73.68;101830.81;5021777;28;45288;-69
2022/03/14 02:24:32;;;;;;;;;2.00;2.00;;;;;8.65;73.82;101829.28;5021622;28;45413;-68
2022/03/14 02:26:58;;;;;;;;;2.67;2.00;;;;;8.58;73.43;101836.13;5022361;28;45480;-68
2022/03/14 02:29:24;;;;;;;;;3.00;2.00;;;;;8.56;74.21;101836.22;5021252;28;45396;-68
2022/03/14 02:31:51;;;;;;;;;7.67;2.00;;;;;8.50;74.23;101835.78;5022934;28;45552;-69
2022/03/14 02:34:17;;;;;;;;;2.00;0.67;;;;;8.51;74.05;101834.81;5020412;28;47583;-68
2022/03/14 02:36:43;;;;;;;;;4.00;1.67;;;;;8.52;74.60;101832.00;5021130;28;45353;-68
2022/03/14 02:39:09;;;;;;;;;3.00;2.00;;;;;8.50;74.25;101838.50;5020427;28;45377;-68
2022/03/14 02:41:36;;;;;;;;;3.33;1.00;;;;;8.46;74.20;101835.16;5023240;28;45263;-69
2022/03/14 02:44:02;;;;;;;;;3.00;1.67;;;;;8.45;74.29;101844.25;5022105;28;46232;-68
2022/03/14 02:46:29;;;;;;;;;3.00;2.00;;;;;8.43;74.09;101848.03;5022686;28;45532;-68
2022/03/14 02:48:54;;;;;;;;;3.33;1.67;;;;;8.41;74.37;101853.56;5022489;28;45331;-68
2022/03/14 02:51:20;;;;;;;;;2.67;2.00;;;;;8.39;74.25;101852.81;5023095;28;45466;-68
2022/03/14 02:53:45;;;;;;;;;2.00;2.00;;;;;8.36;74.77;101854.84;5022733;28;45558;-68
2022/03/14 02:56:11;;;;;;;;;2.00;2.00;;;;;8.32;75.00;101858.78;5022235;28;45395;-69
2022/03/14 02:58:40;;;;;;;;;1.33;1.33;;;;;8.35;74.78;101872.06;5022922;28;45469;-68
2022/03/14 03:01:05;;;;;;;;;4.33;1.67;;;;;8.32;75.20;101872.31;5021560;28;45382;-67
2022/03/14 03:03:31;;;;;;;;;4.00;1.00;;;;;8.27;75.41;101877.13;5034570;28;47080;-68
2022/03/14 03:05:57;;;;;;;;;3.67;2.67;;;;;8.27;75.27;101888.81;5019973;28;45478;-68
2022/03/14 03:08:23;;;;;;;;;4.00;2.33;;;;;8.25;75.54;101901.63;5022747;28;45340;-69
2022/03/14 03:10:49;;;;;;;;;5.33;2.00;;;;;8.25;75.42;101903.44;5017901;28;45371;-70
2022/03/14 03:13:15;;;;;;;;;4.00;2.00;;;;;8.22;75.37;101915.34;5020350;28;46978;-69
2022/03/14 03:15:41;;;;;;;;;7.00;3.00;;;;;8.24;75.19;101905.28;5021667;28;45468;-69
2022/03/14 03:18:07;;;;;;;;;2.00;2.00;;;;;8.28;75.67;101917.63;5021326;28;45291;-69
2022/03/14 03:20:33;;;;;;;;;3.00;3.00;;;;;8.29;75.54;101926.63;5026218;28;45587;-69
2022/03/14 03:22:58;;;;;;;;;4.00;3.00;;;;;8.29;75.88;101924.78;5022581;28;45363;-69
2022/03/14 03:25:23;;;;;;;;;3.67;2.00;;;;;8.27;75.82;101940.25;5017221;28;45327;-68
2022/03/14 03:27:49;;;;;;;;;2.00;2.00;;;;;8.30;75.18;101942.78;5020952;28;45407;-69
2022/03/14 03:30:15;;;;;;;;;5.33;2.33;;;;;8.29;75.35;101946.44;5020727;28;45670;-68
2022/03/14 03:32:41;;;;;;;;;2.00;2.00;;;;;8.27;75.62;101948.38;5021898;28;45402;-68
2022/03/14 03:35:06;;;;;;;;;4.00;2.00;;;;;8.28;75.74;101955.53;5021700;28;45418;-68
2022/03/14 03:37:32;;;;;;;;;5.67;2.00;;;;;8.25;76.09;101955.75;5022579;28;45483;-68
2022/03/14 03:39:58;;;;;;;;;2.00;2.00;;;;;8.22;75.87;101955.97;5022293;28;45289;-68
2022/03/14 03:42:23;;;;;;;;;6.33;3.67;;;;;8.18;75.76;101957.16;5024931;28;46377;-68
2022/03/14 03:44:48;;;;;;;;;5.67;4.00;;;;;8.19;75.85;101972.41;5023733;28;45323;-68
2022/03/14 03:47:13;;;;;;;;;7.00;3.00;;;;;8.16;76.04;101969.91;5025799;28;45453;-69
2022/03/14 03:49:39;;;;;;;;;4.67;3.00;;;;;8.14;75.52;101971.84;5024903;28;45431;-69
2022/03/14 03:52:06;;;;;;;;;3.00;2.00;;;;;8.18;76.19;101978.81;5025041;28;45786;-68
2022/03/14 03:54:31;;;;;;;;;2.00;2.00;;;;;8.16;75.90;101980.75;5020968;28;45352;-68
2022/03/14 03:56:56;;;;;;;;;2.00;1.00;;;;;8.13;75.98;101984.50;5023839;28;45286;-69
2022/03/14 03:59:22;;;;;;;;;3.00;3.00;;;;;8.14;75.88;101979.97;5025249;28;45341;-69
2022/03/14 04:01:48;;;;;;;;;4.33;2.33;;;;;8.13;75.99;101998.06;5025257;28;45630;-69
2022/03/14 04:04:13;;;;;;;;;4.00;2.00;;;;;8.11;75.98;101997.28;5025207;28;45209;-70
2022/03/14 04:06:40;;;;;;;;;6.67;4.33;;;;;8.08;76.22;102002.03;5024041;28;45374;-69
2022/03/14 04:09:06;;;;;;;;;2.00;2.00;;;;;8.07;75.90;102005.72;5025604;28;45335;-68
2022/03/14 04:11:31;;;;;;;;;9.00;5.33;;;;;7.96;76.62;102006.44;5025098;28;45930;-69
2022/03/14 04:13:58;;;;;;;;;4.00;4.00;;;;;7.98;76.36;102007.19;5024764;28;45694;-68
2022/03/14 04:16:27;;;;;;;;;3.67;2.00;;;;;7.95;76.61;102015.53;5023847;28;45420;-68
2022/03/14 04:18:53;;;;;;;;;6.00;3.00;;;;;7.93;76.60;102014.75;5037734;28;45260;-68
2022/03/14 04:21:20;;;;;;;;;6.67;3.00;;;;;7.95;76.52;102015.53;5023223;28;47479;-69
2022/03/14 04:23:46;;;;;;;;;5.67;2.67;;;;;7.98;76.58;102018.00;5023318;28;45414;-68
2022/03/14 04:26:12;;;;;;;;;7.00;5.33;;;;;7.96;76.46;102019.97;5023988;28;45484;-69
2022/03/14 04:28:39;;;;;;;;;4.00;3.00;;;;;7.97;76.50;102026.22;5023847;28;45370;-69
2022/03/14 04:31:06;;;;;;;;;9.00;3.00;;;;;7.98;75.92;102027.97;5020758;28;47038;-68
2022/03/14 04:33:32;;;;;;;;;6.00;3.00;;;;;8.02;75.96;102029.50;5020054;28;45353;-68
2022/03/14 04:35:58;;;;;;;;;2.33;2.00;;;;;8.05;76.13;102034.72;5022541;28;45338;-69
2022/03/14 04:38:28;;;;;;;;;3.67;2.00;;;;;8.06;75.72;102034.63;5024224;28;45276;-69
2022/03/14 04:40:54;;;;;;;;;4.33;3.00;;;;;8.04;75.70;102044.66;5023647;28;47214;-69
2022/03/14 04:43:21;;;;;;;;;1.67;1.67;;;;;8.02;75.64;102046.63;5025095;28;45291;-69
2022/03/14 04:45:47;;;;;;;;;6.33;3.00;;;;;8.04;75.49;102062.75;5018543;28;46281;-69
2022/03/14 04:48:12;;;;;;;;;4.00;2.00;;;;;8.02;75.74;102062.00;5025151;28;45291;-69
2022/03/14 04:50:39;;;;;;;;;6.67;3.00;;;;;8.01;75.47;102079.19;5023911;28;45410;-69
2022/03/14 04:53:06;;;;;;;;;3.00;3.00;;;;;8.00;75.89;102074.75;5024592;28;45316;-69
2022/03/14 04:55:31;;;;;;;;;6.67;6.67;;;;;7.97;76.05;102075.81;5023946;28;45477;-69
2022/03/14 04:57:57;;;;;;;;;8.33;3.00;;;;;7.92;75.52;102077.94;5023267;28;45374;-69
2022/03/14 05:00:22;;;;;;;;;4.00;3.00;;;;;7.88;75.36;102075.56;5022954;28;45449;-68
2022/03/14 05:02:48;;;;;;;;;3.33;2.00;;;;;7.88;75.17;102083.66;5024801;28;45311;-69
2022/03/14 05:05:14;;;;;;;;;4.00;2.33;;;;;7.86;75.77;102082.88;5023849;28;45498;-69
2022/03/14 05:07:40;;;;;;;;;2.00;2.00;;;;;7.85;75.58;102091.97;5025174;28;45304;-69
2022/03/14 05:10:06;;;;;;;;;4.00;4.00;;;;;7.81;75.58;102085.91;5021912;28;48306;-68
2022/03/14 05:12:32;;;;;;;;;4.00;2.00;;;;;7.79;75.75;102098.66;5022935;28;45494;-69
2022/03/14 05:14:58;;;;;;;;;3.00;3.00;;;;;7.75;76.09;102092.53;5022718;28;45443;-69
2022/03/14 05:17:24;;;;;;;;;4.00;3.00;;;;;7.74;75.56;102096.22;5024751;28;45349;-68
2022/03/14 05:19:50;;;;;;;;;6.00;4.00;;;;;7.69;75.98;102101.06;5018668;28;47199;-68
2022/03/14 05:22:16;;;;;;;;;6.33;4.00;;;;;7.71;76.01;102111.78;5022534;28;45378;-68
2022/03/14 05:24:42;;;;;;;;;3.33;3.33;;;;;7.57;76.03;102120.78;5022000;28;45380;-69
2022/03/14 05:27:08;;;;;;;;;6.33;3.67;;;;;7.50;76.63;102115.84;5023147;28;45667;-68
2022/03/14 05:29:34;;;;;;;;;4.00;4.00;;;;;7.52;76.30;102130.16;5021425;28;45654;-70
2022/03/14 05:31:59;;;;;;;;;6.33;4.00;;;;;7.41;76.58;102126.25;5018352;28;45542;-70
2022/03/14 05:34:25;;;;;;;;;7.67;6.00;;;;;7.41;76.69;102133.50;5022182;28;45430;-67
2022/03/14 05:36:51;;;;;;;;;3.33;3.33;;;;;7.39;76.87;102127.31;5022882;28;45302;-68
2022/03/14 05:39:16;;;;;;;;;6.00;3.00;;;;;7.35;76.76;102131.19;5019874;28;48089;-69
2022/03/14 05:41:42;;;;;;;;;10.67;5.00;;;;;7.31;76.91;102132.31;5022954;28;45343;-69
2022/03/14 05:44:07;;;;;;;;;7.00;6.33;;;;;7.26;76.92;102132.59;5019295;28;45223;-69
2022/03/14 05:46:33;;;;;;;;;6.00;3.00;;;;;7.19;77.24;102133.06;5024192;28;45425;-69
2022/03/14 05:48:58;;;;;;;;;6.33;3.67;;;;;7.23;77.19;102137.34;5019801;28;48065;-69
2022/03/14 05:51:23;;;;;;;;;6.00;3.67;;;;;7.22;77.46;102141.88;5023817;28;45405;-69
2022/03/14 05:53:49;;;;;;;;;10.00;4.67;;;;;7.20;77.43;102145.63;5023845;28;45275;-69
2022/03/14 05:56:14;;;;;;;;;11.00;5.33;;;;;7.21;77.07;102152.78;5023681;28;45642;-69
2022/03/14 05:58:39;;;;;;;;;8.00;6.33;;;;;7.15;77.51;102153.16;5021905;28;46995;-70
2022/03/14 06:01:05;;;;;;;;;7.33;7.33;;;;;7.18;77.42;102158.34;5021534;28;45800;-69
2022/03/14 06:03:30;;;;;;;;;11.67;4.00;;;;;7.19;77.40;102162.81;5021958;28;45391;-69
2022/03/14 06:05:55;;;;;;;;;3.67;3.00;;;;;7.19;77.40;102168.22;5022992;28;45308;-69
2022/03/14 06:08:21;;;;;;;;;4.00;4.00;;;;;7.17;77.50;102165.59;5018916;28;46288;-69
2022/03/14 06:10:46;;;;;;;;;7.33;7.00;;;;;7.20;77.19;102186.16;5019352;28;45861;-69
2022/03/14 06:13:15;;;;;;;;;6.33;3.67;;;;;7.19;77.20;102185.28;5018934;28;45430;-69
2022/03/14 06:15:42;;;;;;;;;7.00;5.33;;;;;7.22;77.20;102189.66;5018403;28;45335;-69
2022/03/14 06:18:07;;;;;;;;;6.00;5.33;;;;;7.17;77.08;102189.03;5022964;28;46757;-69
2022/03/14 06:20:33;;;;;;;;;5.33;5.33;;;;;7.09;77.20;102188.63;5022419;28;45177;-69
2022/03/14 06:22:58;;;;;;;;;11.00;9.00;;;;;7.13;77.42;102187.50;5021725;28;45477;-69
2022/03/14 06:25:23;;;;;;;;;21.33;17.67;;;;;7.17;77.19;102191.75;5023013;28;45445;-68
2022/03/14 06:27:49;;;;;;;;;6.00;3.33;;;;;7.10;77.06;102183.13;5022414;28;46516;-68
2022/03/14 06:30:15;;;;;;;;;3.67;3.67;;;;;7.13;77.24;102201.00;5019102;28;45833;-69
2022/03/14 06:32:42;;;;;;;;;3.00;3.00;;;;;7.16;76.99;102203.53;5021794;28;45351;-69
2022/03/14 06:35:11;;;;;;;;;7.67;6.00;;;;;7.17;77.59;102208.84;5021376;28;45394;-69
2022/03/14 06:37:37;;;;;;;;;10.00;6.67;;;;;7.20;77.30;102200.56;5021201;28;45252;-69
2022/03/14 06:40:03;;;;;;;;;6.33;6.33;;;;;7.30;77.37;102209.00;5020747;28;45464;-69
2022/03/14 06:42:29;;;;;;;;;8.00;7.00;;;;;7.40;77.60;102238.09;5021780;28;45471;-69
2022/03/14 06:45:00;;;;;;;;;12.00;7.67;;;;;7.50;77.08;102240.25;5016042;28;45547;-70
2022/03/14 06:47:25;;;;;;;;;11.33;7.00;;;;;7.58;76.23;102238.81;5020647;28;46145;-69
2022/03/14 06:49:51;;;;;;;;;6.33;5.33;;;;;7.65;76.45;102245.59;5019893;28;45319;-70
2022/03/14 06:52:16;;;;;;;;;8.00;7.00;;;;;7.71;76.11;102247.94;5020884;28;45311;-69
2022/03/14 06:54:42;;;;;;;;;7.33;7.33;;;;;7.82;75.80;102255.38;5018085;28;45411;-72
2022/03/14 06:57:09;;;;;;;;;6.33;6.33;;;;;7.94;75.57;102251.94;5019947;28;45320;-69
2022/03/14 06:59:35;;;;;;;;;21.00;17.67;;;;;8.16;75.01;102256.88;5020102;28;45367;-69
2022/03/14 07:02:01;;;;;;;;;7.00;6.67;;;;;8.65;74.07;102251.06;5020402;28;45357;-70
2022/03/14 07:04:27;;;;;;;;;7.33;7.00;;;;;8.62;73.53;102251.28;5018982;28;45466;-69
2022/03/14 07:06:52;;;;;;;;;13.00;8.00;;;;;8.68;72.82;102262.59;5015899;28;47067;-69
2022/03/14 07:09:18;;;;;;;;;8.67;6.67;;;;;8.73;72.73;102270.41;5018874;28;45387;-69
2022/03/14 07:11:44;;;;;;;;;8.00;6.67;;;;;8.79;72.48;102275.41;5019195;28;45297;-69
2022/03/14 07:14:09;;;;;;;;;8.00;7.33;;;;;8.85;72.22;102278.59;5017706;28;45318;-70
2022/03/14 07:16:35;;;;;;;;;11.33;10.00;;;;;8.94;72.25;102290.69;5019491;28;46343;-68
2022/03/14 07:19:00;;;;;;;;;7.00;6.67;;;;;8.99;72.27;102297.53;5019380;28;45731;-68
2022/03/14 07:21:28;;;;;;;;;10.00;6.33;;;;;9.04;71.81;102299.97;5015531;28;45272;-69
2022/03/14 07:23:57;;;;;;;;;15.00;12.00;;;;;9.09;71.55;102305.06;5013403;28;45465;-69
2022/03/14 07:26:23;;;;;;;;;9.67;8.67;;;;;9.07;71.66;102305.16;5017598;28;47592;-69
2022/03/14 07:28:49;;;;;;;;;12.33;7.00;;;;;8.83;71.01;102302.25;4972960;28;1212516;-71
2022/03/14 07:31:17;;;;;;;;;9.00;8.33;;;;;8.99;71.58;102304.78;5019432;28;45267;-71
2022/03/14 07:33:43;;;;;;;;;8.33;6.00;;;;;9.23;71.41;102308.63;5020395;28;45576;-70
2022/03/14 07:36:09;;;;;;;;;9.67;6.67;;;;;9.40;70.88;102320.19;5018880;28;45772;-70
2022/03/14 07:38:34;;;;;;;;;10.33;8.33;;;;;9.46;70.22;102315.22;5021752;28;45224;-70
2022/03/14 07:41:00;;;;;;;;;11.33;9.67;;;;;9.57;70.29;102319.94;5020656;28;45886;-70
2022/03/14 07:43:25;;;;;;;;;7.33;7.00;;;;;9.63;70.33;102322.22;5021592;28;45393;-70
2022/03/14 07:45:50;;;;;;;;;7.67;7.67;;;;;9.64;69.70;102323.97;5019973;28;45346;-70
2022/03/14 07:48:16;;;;;;;;;9.33;7.33;;;;;9.55;70.06;102330.00;5021364;28;45439;-71
2022/03/14 07:50:41;;;;;;;;;14.00;10.00;;;;;9.47;70.46;102343.22;5021174;28;45382;-71
2022/03/14 07:53:07;;;;;;;;;9.00;9.00;;;;;9.36;70.73;102349.34;5020590;28;45348;-71
2022/03/14 07:55:32;;;;;;;;;21.67;15.00;;;;;9.36;70.54;102354.75;5015525;28;48198;-70
2022/03/14 07:57:58;;;;;;;;;10.00;8.33;;;;;9.40;70.71;102372.59;5035990;28;45515;-69
2022/03/14 08:00:24;;;;;;;;;11.00;10.00;;;;;9.46;69.92;102374.91;5019600;28;45458;-69
2022/03/14 08:02:50;;;;;;;;;9.00;6.00;;;;;9.60;70.44;102372.13;5020721;28;45484;-70
2022/03/14 08:05:16;;;;;;;;;9.00;8.67;;;;;9.91;69.22;102370.94;5020313;28;46075;-69
2022/03/14 08:07:46;;;;;;;;;14.67;10.67;;;;;10.24;68.83;102380.47;5016391;28;45329;-69
2022/03/14 08:10:14;;;;;;;;;9.33;8.00;;;;;10.64;68.78;102376.72;5020145;28;45455;-70
2022/03/14 08:12:45;;;;;;;;;11.67;7.67;;;;;10.98;67.00;102379.72;5022030;28;45333;-69
2022/03/14 08:15:11;;;;;;;;;9.67;6.00;;;;;11.30;67.75;102370.06;5020489;28;45386;-69
2022/03/14 08:17:36;;;;;;;;;8.33;8.33;;;;;11.45;65.54;102368.06;5021306;28;45402;-69
2022/03/14 08:20:03;;;;;;;;;13.67;12.00;;;;;11.79;63.82;102374.56;5020631;28;45585;-69
2022/03/14 08:22:29;;;;;;;;;11.00;9.67;;;;;11.97;63.08;102381.34;5021782;28;45394;-69
2022/03/14 08:24:54;;;;;;;;;12.33;11.00;;;;;12.05;62.36;102387.94;5020317;28;45312;-69
2022/03/14 08:27:20;;;;;;;;;10.67;9.33;;;;;12.39;62.57;102390.78;5017811;28;45326;-70
2022/03/14 08:29:45;;;;;;;;;13.33;8.00;;;;;12.70;63.07;102387.38;5023607;28;45295;-69
2022/03/14 08:32:12;;;;;;;;;10.00;10.00;;;;;12.91;61.24;102390.22;5024990;28;45495;-70
2022/03/14 08:34:38;;;;;;;;;14.67;9.67;;;;;12.58;58.31;102393.78;5021151;28;47209;-70
2022/03/14 08:37:03;;;;;;;;;13.00;12.33;;;;;12.94;60.36;102394.53;5024095;28;45373;-69
2022/03/14 08:39:31;;;;;;;;;13.67;11.00;;;;;13.15;58.57;102390.97;5024126;28;45270;-69
2022/03/14 08:41:57;;;;;;;;;14.67;11.00;;;;;13.17;59.72;102397.19;5020858;28;45504;-70
2022/03/14 08:44:22;;;;;;;;;15.00;10.00;;;;;13.49;58.31;102394.56;5021375;28;47219;-70
2022/03/14 08:46:48;;;;;;;;;12.00;11.67;;;;;13.41;56.71;102393.44;5023142;28;45437;-70
2022/03/14 08:49:13;;;;;;;;;8.00;8.00;;;;;13.53;56.88;102404.22;5023389;28;45253;-70
2022/03/14 08:51:40;;;;;;;;;13.67;9.67;;;;;13.50;56.55;102417.25;5023984;28;45517;-70
2022/03/14 08:54:06;;;;;;;;;19.00;13.00;;;;;13.67;56.57;102421.31;5024662;28;45582;-70
2022/03/14 08:56:33;;;;;;;;;12.33;12.33;;;;;13.47;55.78;102417.50;5023118;28;45436;-70
2022/03/14 08:58:58;;;;;;;;;19.33;13.00;;;;;13.79;56.66;102420.31;5024631;28;45157;-70
2022/03/14 09:01:24;;;;;;;;;11.67;10.67;;;;;14.12;57.83;102428.38;5025013;28;45585;-70
2022/03/14 09:03:49;;;;;;;;;11.00;9.67;;;;;14.38;54.82;102421.59;5024724;28;45274;-70
2022/03/14 09:06:15;;;;;;;;;12.00;9.33;;;;;14.22;53.65;102425.72;5024147;28;45254;-69
2022/03/14 09:08:40;;;;;;;;;9.33;9.33;;;;;14.49;55.25;102420.63;5024813;28;45329;-69
2022/03/14 09:11:06;;;;;;;;;13.33;10.00;;;;;14.83;54.94;102418.53;5023792;28;45282;-70
2022/03/14 09:13:31;;;;;;;;;16.00;12.67;;;;;15.22;55.28;102425.06;5024605;28;45636;-70
2022/03/14 09:15:56;;;;;;;;;14.00;13.00;;;;;14.86;53.10;102423.75;5023945;28;45402;-70
2022/03/14 09:18:25;;;;;;;;;14.33;14.33;;;;;14.87;53.03;102432.81;5024369;28;45367;-70
2022/03/14 09:20:51;;;;;;;;;14.00;11.33;;;;;15.21;53.58;102428.81;5024778;28;45326;-70
2022/03/14 09:23:20;;;;;;;;;15.00;12.33;;;;;15.43;53.27;102430.47;5023270;28;45871;-70
2022/03/14 09:25:47;;;;;;;;;16.67;11.67;;;;;15.32;52.06;102431.47;5024453;28;45364;-70
2022/03/14 09:28:13;;;;;;;;;18.00;14.33;;;;;15.41;51.61;102435.25;5024264;28;45397;-70
2022/03/14 09:30:39;;;;;;;;;15.67;13.00;;;;;15.71;51.40;102434.34;5022413;28;45323;-70
2022/03/14 09:33:05;;;;;;;;;11.00;9.67;;;;;15.93;50.79;102434.09;5022529;28;47351;-70
2022/03/14 09:35:30;;;;;;;;;22.67;18.00;;;;;16.11;51.35;102437.00;5023012;28;45240;-70
2022/03/14 09:37:56;;;;;;;;;14.67;11.33;;;;;16.25;51.82;102450.28;5024374;28;45494;-70
2022/03/14 09:40:23;;;;;;;;;12.00;8.67;;;;;16.74;51.44;102438.28;5023692;28;45311;-70
2022/03/14 09:42:52;;;;;;;;;11.67;10.33;;;;;16.86;48.49;102431.63;5024159;28;46160;-70
2022/03/14 09:45:19;;;;;;;;;15.00;12.00;;;;;16.59;48.22;102428.75;5023487;28;45369;-70
2022/03/14 09:47:51;;;;;;;;;10.33;9.67;;;;;16.69;49.34;102440.59;5024336;28;45332;-69
2022/03/14 09:50:47;;;;;;;;;14.00;11.00;;;;;16.47;49.73;102447.25;5039585;28;45421;-69
2022/03/14 09:53:14;;;;;;;;;15.33;12.00;;;;;16.83;50.26;102434.66;5023990;28;45437;-68
2022/03/14 09:55:43;;;;;;;;;14.67;12.67;;;;;17.20;49.51;102433.81;5024236;28;45233;-68
2022/03/14 09:58:15;;;;;;;;;14.67;12.00;;;;;17.31;48.05;102441.88;5023817;28;45332;-69
2022/03/14 10:00:42;;;;;;;;;14.00;14.00;;;;;17.40;47.48;102446.44;5024340;28;45257;-69
2022/03/14 10:03:08;;;;;;;;;19.33;16.00;;;;;16.84;47.02;102450.13;5023603;28;45575;-70
2022/03/14 10:05:34;;;;;;;;;14.33;12.67;;;;;16.80;48.43;102448.69;5023804;28;45311;-70
2022/03/14 10:08:00;;;;;;;;;17.00;16.00;;;;;16.25;48.12;102450.28;5023622;28;45224;-70
2022/03/14 10:10:26;;;;;;;;;19.67;14.33;;;;;16.48;49.75;102459.09;5024069;28;45453;-72
2022/03/14 10:12:56;;;;;;;;;20.33;17.00;;;;;17.02;48.63;102462.06;5023353;28;45477;-70
2022/03/14 10:15:22;;;;;;;;;16.33;14.33;;;;;17.28;48.19;102450.41;5023141;28;45248;-70
2022/03/14 10:17:48;;;;;;;;;23.67;15.33;;;;;17.37;46.91;102439.38;5023405;28;45529;-70
2022/03/14 10:20:15;;;;;;;;;15.33;11.67;;;;;17.08;46.34;102446.88;5024262;28;45458;-70
2022/03/14 10:22:41;;;;;;;;;15.00;12.67;;;;;16.91;48.80;102443.00;5023479;28;45448;-71
2022/03/14 10:25:22;;;;;;;;;21.67;13.33;;;;;17.25;48.30;102443.31;5022369;28;45352;-70
2022/03/14 10:27:51;;;;;;;;;15.00;13.00;;;;;17.45;48.37;102447.75;5023518;28;45351;-70
2022/03/14 10:30:25;;;;;;;;;16.00;15.33;;;;;17.63;47.40;102460.69;5023764;28;45454;-70
2022/03/14 10:32:57;;;;;;;;;12.00;11.33;;;;;17.75;47.14;102470.47;5023320;28;45399;-70
2022/03/14 10:35:23;;;;;;;;;15.00;13.33;;;;;17.79;47.18;102470.00;5021647;28;45783;-70
2022/03/14 10:38:01;;;;;;;;;12.00;10.00;;;;;17.79;46.60;102470.00;5023042;28;45402;-70
2022/03/14 10:40:39;;;;;;;;;15.00;14.00;;;;;17.68;46.68;102472.09;5022006;28;45498;-69
2022/03/14 10:43:23;;;;;;;;;11.67;11.33;;;;;17.84;47.50;102467.66;5023559;28;46615;-69
2022/03/14 10:45:49;;;;;;;;;15.00;13.00;;;;;17.55;46.54;102458.66;5023014;28;45428;-70
2022/03/14 10:48:14;;;;;;;;;17.67;14.67;;;;;17.72;46.46;102471.63;5023381;28;45231;-70
2022/03/14 10:50:41;;;;;;;;;13.67;10.00;;;;;17.70;46.44;102465.41;5023157;28;45268;-70
2022/03/14 10:53:15;;;;;;;;;14.67;11.33;;;;;17.39;46.39;102461.19;5022945;28;45689;-70
2022/03/14 10:55:46;;;;;;;;;12.00;11.67;;;;;17.41;47.29;102460.03;5023027;28;45434;-70
2022/03/14 10:58:11;;;;;;;;;10.67;9.00;;;;;17.60;46.32;102461.84;5023104;28;45354;-70
2022/03/14 11:00:44;;;;;;;;;13.00;11.00;;;;;17.69;46.60;102458.19;5021921;28;45659;-70
2022/03/14 11:03:09;;;;;;;;;15.33;12.67;;;;;17.70;45.23;102465.41;5020145;28;47291;-70
2022/03/14 11:05:44;;;;;;;;;16.33;11.00;;;;;17.43;46.22;102459.88;5022452;28;45330;-70
2022/03/14 11:08:33;;;;;;;;;8.00;8.00;;;;;17.31;46.34;102467.47;5024258;28;45442;-68
2022/03/14 11:11:22;;;;;;;;;9.00;7.00;;;;;17.28;46.87;102466.91;5025706;28;45363;-69
2022/03/14 11:13:53;;;;;;;;;16.00;13.33;;;;;16.91;45.74;102473.22;5022134;28;45630;-70
2022/03/14 11:16:30;;;;;;;;;16.67;12.00;;;;;16.31;46.01;102469.78;5022090;28;45343;-70
2022/03/14 11:18:57;;;;;;;;;9.67;9.67;;;;;16.45;48.03;102464.84;5022825;28;45318;-70
2022/03/14 11:21:26;;;;;;;;;11.00;9.33;;;;;16.44;48.53;102468.63;5022901;28;45515;-70
2022/03/14 11:23:55;;;;;;;;;12.00;6.33;;;;;16.42;48.06;102459.69;5022248;28;47142;-69